Air Resources Laboratory banner image
Air Resources Laboratory web site National Oceanic and Atmospheric Administration (NOAA)

nj metar


K12N 210154Z AUTO VRB03KT 20/13 A3014 RMK AO1 SLP199 T02000133=
KACY 210154Z 14006KT 10SM FEW036 23/16 A3012 RMK AO2 SLP198 T02280161=
KBLM 210156Z AUTO 12005KT 10SM CLR 21/16 A3014 RMK AO2 SLP209 T02110156=
KCDW 210153Z 16004KT 10SM CLR 22/16 A3013 RMK AO2 SLP208 T02170156=
KEWR 210151Z VRB04KT 10SM FEW030 FEW140 BKN250 23/16 A3012 RMK AO2 SLP200
 T02280161=
KFWN 210153Z AUTO VRB03KT 10SM CLR 21/13 A3013 RMK AO2 SLP200 T02060128=
KMIV 210154Z AUTO 12003KT 10SM CLR 19/16 A3011 RMK AO2 SLP196 T01940161=
KMMU 210145Z 00000KT 10SM SCT250 18/16 A3013=
KSMQ 210153Z AUTO 00000KT 10SM CLR 19/15 A3011 RMK AO2 SLP196 T01890150=
KTEB 210151Z 16005KT 10SM CLR 23/15 A3012 RMK AO2 SLP197 T02280150=
KTTN 210153Z 13006KT 10SM CLR 22/16 A3012 RMK AO2 SLP191 T02170156=
KVAY 210154Z AUTO 13003KT 10SM CLR 20/16 A3012 RMK AO2 SLP198 T02000161=
KWRI 210156Z AUTO 00000KT 10SM CLR 20/16 A3011 RMK AO2 RAB42E50 SLP195 P0000
 T01970157=
KWWD 210155Z AUTO 12005KT 10SM CLR 22/17 A3011 RMK AO2 SLP198 T02170172=